Time;durP1;ratioP1;P1;durP2;ratioP2;P2;SDS_P1;SDS_P2;PMS_P1;PMS_P2;Temp;Humidity;BMP_temperature;BMP_pressure;BME280_temperature;BME280_humidity;BME280_pressure;Samples;Min_cycle;Max_cycle;Signal;HPM_P1;HPM_P2
2023/01/07 00:01:31;;;;;;;20.40;18.10;;;10.40;99.90;;;;;;5043323;28;20048;-60
2023/01/07 00:03:58;;;;;;;20.90;17.90;;;10.50;99.90;;;;;;5046429;28;20056;-57
2023/01/07 00:06:26;;;;;;;22.13;18.98;;;10.40;99.90;;;;;;5047681;28;20037;-59
2023/01/07 00:08:54;;;;;;;23.02;20.33;;;10.50;99.90;;;;;;5047034;28;20075;-58
2023/01/07 00:11:22;;;;;;;21.83;19.52;;;10.50;99.90;;;;;;5047319;28;20094;-55
2023/01/07 00:13:49;;;;;;;24.63;20.80;;;10.50;99.90;;;;;;5047187;28;20032;-58
2023/01/07 00:16:18;;;;;;;23.80;21.20;;;10.50;99.90;;;;;;5047515;28;20036;-60
2023/01/07 00:18:44;;;;;;;24.58;19.45;;;10.50;99.90;;;;;;5047507;28;20044;-59
2023/01/07 00:21:13;;;;;;;23.48;20.95;;;10.50;99.90;;;;;;5047388;28;20041;-56
2023/01/07 00:23:40;;;;;;;25.40;21.38;;;10.50;99.90;;;;;;5046975;28;20037;-60
2023/01/07 00:26:09;;;;;;;25.80;21.65;;;10.50;99.90;;;;;;5047411;28;20447;-59
2023/01/07 00:28:37;;;;;;;25.40;20.30;;;10.50;99.90;;;;;;5047512;28;20045;-59
2023/01/07 00:31:14;;;;;;;23.70;20.75;;;10.50;99.90;;;;;;5047700;28;20032;-58
2023/01/07 00:33:50;;;;;;;22.77;20.35;;;10.50;99.90;;;;;;5049161;28;20040;-57
2023/01/07 00:36:16;;;;;;;25.90;22.50;;;10.50;99.90;;;;;;5051421;28;20032;-56
2023/01/07 00:38:42;;;;;;;25.45;22.05;;;10.50;99.90;;;;;;5051010;28;20130;-58
2023/01/07 00:41:09;;;;;;;25.27;22.57;;;10.50;99.90;;;;;;5051548;28;20073;-59
2023/01/07 00:43:34;;;;;;;30.30;24.45;;;10.60;99.90;;;;;;5050209;28;20036;-59
2023/01/07 00:46:00;;;;;;;30.30;20.73;;;10.60;99.90;;;;;;5050196;28;20037;-59
2023/01/07 00:48:25;;;;;;;27.67;23.80;;;10.60;99.90;;;;;;5050781;28;20037;-57
2023/01/07 00:50:52;;;;;;;27.87;20.47;;;10.60;99.90;;;;;;5051413;28;20506;-55
2023/01/07 00:53:17;;;;;;;;;;;10.60;99.90;;;;;;5050217;28;20398;-59
2023/01/07 00:55:43;;;;;;;27.92;22.67;;;10.60;99.90;;;;;;5050183;28;19925;-59
2023/01/07 00:58:14;;;;;;;25.02;20.75;;;10.60;99.90;;;;;;5049371;28;20040;-57
2023/01/07 01:00:39;;;;;;;27.27;22.98;;;10.60;99.90;;;;;;5050304;28;20047;-59
2023/01/07 01:03:05;;;;;;;28.73;22.40;;;10.60;99.90;;;;;;5050442;28;20409;-60
2023/01/07 01:05:31;;;;;;;27.20;22.58;;;10.60;99.90;;;;;;5082530;28;20084;-60
2023/01/07 01:07:56;;;;;;;26.47;23.73;;;10.60;99.90;;;;;;5050702;28;20175;-59
2023/01/07 01:10:22;;;;;;;28.50;23.25;;;10.60;99.90;;;;;;5050460;28;20047;-59
2023/01/07 01:12:48;;;;;;;28.17;21.50;;;10.60;99.90;;;;;;5050636;28;20462;-58
2023/01/07 01:15:15;;;;;;;30.60;22.55;;;10.60;99.90;;;;;;5048788;28;20056;-60
2023/01/07 01:17:41;;;;;;;25.05;20.50;;;10.60;99.90;;;;;;5050439;28;20041;-58
2023/01/07 01:20:11;;;;;;;23.13;20.63;;;10.60;99.90;;;;;;5051027;28;20443;-57
2023/01/07 01:22:36;;;;;;;24.83;22.13;;;10.60;99.90;;;;;;5050276;28;20048;-59
2023/01/07 01:25:03;;;;;;;27.55;23.08;;;10.60;99.90;;;;;;5049530;28;20037;-59
2023/01/07 01:27:30;;;;;;;25.90;22.48;;;10.60;99.90;;;;;;5049704;28;20086;-60
2023/01/07 01:29:56;;;;;;;25.40;22.63;;;10.60;99.90;;;;;;5047628;28;20045;-58
2023/01/07 01:32:22;;;;;;;;;;;10.60;99.90;;;;;;5050667;28;20037;-57
2023/01/07 01:34:47;;;;;;;26.73;21.02;;;10.60;99.90;;;;;;5049262;28;20030;-55
2023/01/07 01:37:13;;;;;;;27.53;22.10;;;10.60;99.90;;;;;;5048356;28;20452;-60
2023/01/07 01:39:38;;;;;;;32.47;23.90;;;10.60;99.90;;;;;;5050120;28;20041;-58
2023/01/07 01:42:04;;;;;;;23.27;20.80;;;10.60;99.90;;;;;;5046642;28;20048;-59
2023/01/07 01:44:36;;;;;;;24.75;19.13;;;10.60;99.90;;;;;;5049289;28;20033;-57
2023/01/07 01:47:05;;;;;;;20.75;18.40;;;10.60;99.90;;;;;;5049901;28;20049;-58
2023/01/07 01:49:37;;;;;;;22.30;18.52;;;10.60;99.90;;;;;;5048197;28;20037;-61
2023/01/07 01:52:11;;;;;;;21.50;17.60;;;10.60;99.90;;;;;;5050546;28;20033;-58
2023/01/07 01:54:40;;;;;;;22.38;19.40;;;10.60;99.90;;;;;;5046775;28;20044;-57
2023/01/07 01:57:07;;;;;;;23.80;18.98;;;10.60;99.90;;;;;;5049709;28;20041;-60
2023/01/07 01:59:38;;;;;;;22.80;20.33;;;10.60;99.90;;;;;;5050098;28;20051;-57
2023/01/07 02:02:05;;;;;;;22.77;19.92;;;10.60;99.90;;;;;;5050244;28;20040;-61
2023/01/07 02:04:32;;;;;;;22.73;19.17;;;10.60;99.90;;;;;;5048751;28;20037;-57
2023/01/07 02:07:14;;;;;;;21.65;19.33;;;10.60;99.90;;;;;;5048714;28;20415;-56
2023/01/07 02:09:40;;;;;;;21.42;19.13;;;10.60;99.90;;;;;;5049366;28;20037;-61
2023/01/07 02:12:24;;;;;;;23.20;20.27;;;10.60;99.90;;;;;;5049784;28;20183;-57
2023/01/07 02:15:08;;;;;;;21.75;17.02;;;10.60;99.90;;;;;;5048443;28;20032;-57
2023/01/07 02:18:01;;;;;;;23.02;19.38;;;10.60;99.90;;;;;;5049253;28;20048;-59
2023/01/07 02:20:49;;;;;;;21.90;18.13;;;10.60;99.90;;;;;;5049652;28;20056;-58
2023/01/07 02:23:45;;;;;;;24.13;19.95;;;10.60;99.90;;;;;;5048339;28;20041;-60
2023/01/07 02:26:40;;;;;;;21.40;17.67;;;10.60;99.90;;;;;;5048700;28;20041;-60
2023/01/07 02:29:30;;;;;;;21.23;17.45;;;10.60;99.90;;;;;;5049094;28;20405;-58
2023/01/07 02:32:21;;;;;;;20.77;16.80;;;10.60;99.90;;;;;;5048878;28;20452;-60
2023/01/07 02:35:14;;;;;;;20.23;17.67;;;10.60;99.90;;;;;;5048245;28;20041;-59
2023/01/07 02:38:16;;;;;;;22.70;17.42;;;10.60;99.90;;;;;;5049253;28;20099;-59
2023/01/07 02:41:08;;;;;;;18.02;16.10;;;10.60;99.90;;;;;;5048582;28;20103;-57
2023/01/07 02:43:36;;;;;;;20.42;15.85;;;10.60;99.90;;;;;;5048358;28;20392;-59
2023/01/07 02:46:05;;;;;;;21.58;18.15;;;10.60;99.90;;;;;;5048545;28;20045;-60
2023/01/07 02:48:32;;;;;;;19.05;17.02;;;10.60;99.90;;;;;;5047964;28;20052;-56
2023/01/07 02:50:57;;;;;;;20.88;17.13;;;10.60;99.90;;;;;;5048379;28;20041;-59
2023/01/07 02:53:23;;;;;;;18.23;15.60;;;10.60;99.90;;;;;;5047638;28;20041;-60
2023/01/07 02:56:17;;;;;;;19.40;17.40;;;10.60;99.90;;;;;;5048422;28;20033;-58
2023/01/07 02:58:52;;;;;;;18.40;15.43;;;10.60;99.90;;;;;;5047904;28;20044;-59
2023/01/07 03:01:33;;;;;;;19.27;14.68;;;10.60;99.90;;;;;;5047575;28;20150;-60
2023/01/07 03:04:30;;;;;;;21.75;17.73;;;10.60;99.90;;;;;;5046432;28;20040;-58
2023/01/07 03:07:15;;;;;;;17.70;15.85;;;10.60;99.90;;;;;;5049019;28;20401;-59
2023/01/07 03:09:55;;;;;;;21.98;15.88;;;10.60;99.90;;;;;;5048198;28;20119;-57
2023/01/07 03:12:30;;;;;;;19.65;16.10;;;10.60;99.90;;;;;;5048615;28;20120;-59
2023/01/07 03:15:04;;;;;;;17.58;15.02;;;10.60;99.90;;;;;;5047015;28;20033;-57
2023/01/07 03:17:38;;;;;;;17.02;15.23;;;10.60;99.90;;;;;;5048319;28;20033;-59
2023/01/07 03:20:05;;;;;;;18.65;14.60;;;10.60;99.90;;;;;;5046285;28;20036;-60
2023/01/07 03:22:33;;;;;;;17.55;13.57;;;10.60;99.90;;;;;;5048698;28;20591;-58
2023/01/07 03:25:01;;;;;;;16.52;14.63;;;10.50;99.90;;;;;;5047287;28;20049;-59
2023/01/07 03:27:31;;;;;;;18.65;13.93;;;10.50;99.90;;;;;;5045967;28;20202;-58
2023/01/07 03:30:00;;;;;;;19.15;15.10;;;10.50;99.90;;;;;;5048161;28;20080;-56
2023/01/07 03:32:31;;;;;;;20.95;15.10;;;10.40;99.90;;;;;;5048487;28;20084;-60
2023/01/07 03:34:57;;;;;;;19.48;14.80;;;10.50;99.90;;;;;;5046842;28;20557;-57
2023/01/07 03:37:26;;;;;;;19.42;14.43;;;10.50;99.90;;;;;;5048151;28;20102;-58
2023/01/07 03:39:52;;;;;;;18.13;15.18;;;10.40;99.90;;;;;;5048845;28;20395;-57
2023/01/07 03:42:41;;;;;;;17.58;14.85;;;10.50;99.90;;;;;;5048932;28;20075;-56
2023/01/07 03:45:10;;;;;;;15.30;13.65;;;10.50;99.90;;;;;;5046940;28;20041;-60
2023/01/07 03:47:37;;;;;;;15.43;13.30;;;10.50;99.90;;;;;;5047896;28;20076;-58
2023/01/07 03:50:03;;;;;;;13.02;11.55;;;10.50;99.90;;;;;;5045349;28;20158;-61
2023/01/07 03:52:29;;;;;;;17.48;13.93;;;10.50;99.90;;;;;;5047512;28;20108;-60
2023/01/07 03:54:54;;;;;;;14.70;12.07;;;10.50;99.90;;;;;;5045816;28;20533;-57
2023/01/07 03:57:20;;;;;;;14.10;11.60;;;10.50;99.90;;;;;;5047696;28;20410;-59
2023/01/07 03:59:45;;;;;;;12.67;11.03;;;10.50;99.90;;;;;;5047505;28;20406;-59
2023/01/07 04:02:11;;;;;;;12.63;11.37;;;10.50;99.90;;;;;;5045470;28;20037;-59
2023/01/07 04:04:36;;;;;;;14.90;12.33;;;10.50;99.90;;;;;;5047274;28;20045;-57
2023/01/07 04:07:03;;;;;;;12.83;11.50;;;10.50;99.90;;;;;;5050268;28;20036;-63
2023/01/07 04:09:29;;;;;;;15.90;11.77;;;10.50;99.90;;;;;;5051709;28;20036;-57
2023/01/07 04:11:54;;;;;;;14.43;11.57;;;10.50;99.90;;;;;;5051358;28;20041;-59
2023/01/07 04:14:20;;;;;;;13.07;8.97;;;10.50;99.90;;;;;;5047555;28;20072;-60
2023/01/07 04:16:45;;;;;;;13.07;10.73;;;10.50;99.90;;;;;;5051773;28;20212;-62
2023/01/07 04:19:11;;;;;;;13.10;11.70;;;10.50;99.90;;;;;;5051799;28;20036;-58
2023/01/07 04:21:36;;;;;;;12.73;11.37;;;10.50;99.90;;;;;;5051751;28;20128;-58
2023/01/07 04:24:02;;;;;;;11.37;9.87;;;10.50;99.90;;;;;;5050722;28;20287;-58
2023/01/07 04:26:27;;;;;;;16.53;10.43;;;10.50;99.90;;;;;;5051070;28;20120;-59
2023/01/07 04:28:53;;;;;;;12.40;10.30;;;10.50;99.90;;;;;;5050828;28;20033;-57
2023/01/07 04:31:19;;;;;;;15.63;10.03;;;10.50;99.90;;;;;;5050706;28;20315;-60
2023/01/07 04:33:44;;;;;;;10.90;9.80;;;10.50;99.90;;;;;;5050561;28;20037;-58
2023/01/07 04:36:12;;;;;;;18.03;10.27;;;10.50;99.90;;;;;;5051312;28;20453;-60
2023/01/07 04:38:38;;;;;;;13.50;8.75;;;10.50;99.90;;;;;;5050785;28;20387;-59
2023/01/07 04:41:03;;;;;;;11.23;9.52;;;10.50;99.90;;;;;;5051383;28;20119;-58
2023/01/07 04:43:29;;;;;;;10.87;8.50;;;10.50;99.90;;;;;;5050127;28;20029;-57
2023/01/07 04:45:54;;;;;;;10.93;8.40;;;10.50;99.90;;;;;;5050673;28;20402;-56
2023/01/07 04:48:20;;;;;;;10.43;9.00;;;10.50;99.90;;;;;;5050960;28;20072;-59
2023/01/07 04:50:47;;;;;;;12.13;8.30;;;10.50;99.90;;;;;;5051271;28;20033;-60
2023/01/07 04:53:12;;;;;;;9.70;7.72;;;10.40;99.90;;;;;;5050243;28;20402;-58
2023/01/07 04:55:38;;;;;;;12.45;9.13;;;10.40;99.90;;;;;;5050715;28;20329;-60
2023/01/07 04:58:03;;;;;;;10.50;8.60;;;10.40;99.90;;;;;;5050052;28;20029;-56
2023/01/07 05:00:29;;;;;;;10.40;7.87;;;10.40;99.90;;;;;;5051263;28;20052;-59
2023/01/07 05:02:55;;;;;;;10.77;7.53;;;10.40;99.90;;;;;;5050457;28;20047;-59
2023/01/07 05:05:20;;;;;;;7.90;6.67;;;10.40;99.90;;;;;;5050404;28;20037;-58
2023/01/07 05:07:46;;;;;;;8.40;7.60;;;10.40;99.90;;;;;;5051008;28;20283;-58
2023/01/07 05:10:11;;;;;;;11.03;7.47;;;10.40;99.90;;;;;;5050468;28;20049;-59
2023/01/07 05:12:37;;;;;;;12.40;7.57;;;10.30;99.90;;;;;;5050375;28;20033;-57
2023/01/07 05:15:04;;;;;;;8.53;7.37;;;10.40;99.90;;;;;;5049985;28;20370;-58
2023/01/07 05:17:29;;;;;;;11.10;7.15;;;10.40;99.90;;;;;;5050342;28;20036;-59
2023/01/07 05:19:55;;;;;;;9.47;6.87;;;10.30;99.90;;;;;;5050700;28;20094;-58
2023/01/07 05:22:21;;;;;;;7.60;6.63;;;10.30;99.90;;;;;;5050643;28;20368;-57
2023/01/07 05:24:46;;;;;;;8.80;6.93;;;10.30;99.90;;;;;;5048036;28;20044;-58
2023/01/07 05:27:12;;;;;;;9.57;7.07;;;10.30;99.90;;;;;;5049615;28;20409;-60
2023/01/07 05:29:37;;;;;;;7.73;6.07;;;10.30;99.90;;;;;;5050744;28;20041;-59
2023/01/07 05:32:04;;;;;;;8.55;6.53;;;10.30;99.90;;;;;;5050410;28;20612;-57
2023/01/07 05:34:29;;;;;;;9.88;5.65;;;10.30;99.90;;;;;;5049200;28;20033;-59
2023/01/07 05:36:55;;;;;;;6.23;5.73;;;10.20;99.90;;;;;;5050271;28;20033;-57
2023/01/07 05:39:20;;;;;;;7.43;6.07;;;10.20;99.90;;;;;;5049702;28;20053;-57
2023/01/07 05:41:46;;;;;;;10.57;6.07;;;10.20;99.90;;;;;;5049955;28;20283;-59
2023/01/07 05:44:12;;;;;;;10.13;6.93;;;10.20;99.90;;;;;;5049243;28;20118;-57
2023/01/07 05:46:37;;;;;;;8.27;6.17;;;10.10;99.90;;;;;;5050187;28;20044;-57
2023/01/07 05:49:03;;;;;;;7.07;6.37;;;10.10;99.90;;;;;;5049721;28;20073;-59
2023/01/07 05:51:28;;;;;;;9.03;7.37;;;10.20;99.90;;;;;;5049977;28;20036;-58
2023/01/07 05:53:54;;;;;;;6.57;5.93;;;10.10;99.90;;;;;;5049017;28;20121;-57
2023/01/07 05:56:20;;;;;;;5.97;5.38;;;10.10;99.90;;;;;;5048638;28;20040;-57
2023/01/07 05:58:45;;;;;;;6.13;5.28;;;10.10;99.90;;;;;;5049688;28;20544;-59
2023/01/07 06:01:11;;;;;;;12.20;5.87;;;10.00;99.90;;;;;;5049693;28;20438;-56
2023/01/07 06:03:37;;;;;;;13.40;6.50;;;10.10;99.90;;;;;;5049284;28;20037;-57
2023/01/07 06:06:05;;;;;;;8.20;6.70;;;10.10;99.90;;;;;;5049145;28;20040;-59
2023/01/07 06:08:33;;;;;;;11.43;5.85;;;10.10;99.90;;;;;;5047366;28;20291;-59
2023/01/07 06:10:59;;;;;;;7.13;6.00;;;10.00;99.90;;;;;;5048998;28;20048;-59
2023/01/07 06:13:24;;;;;;;8.77;5.93;;;10.00;99.90;;;;;;5049161;28;20036;-57
2023/01/07 06:15:50;;;;;;;12.47;6.43;;;10.00;99.90;;;;;;5049135;28;20055;-59
2023/01/07 06:18:15;;;;;;;8.77;6.03;;;10.00;99.90;;;;;;5049376;28;20029;-57
2023/01/07 06:20:41;;;;;;;7.13;5.40;;;10.00;99.90;;;;;;5048857;28;20524;-54
2023/01/07 06:23:06;;;;;;;5.80;5.30;;;10.00;99.90;;;;;;5048300;28;20804;-60
2023/01/07 06:25:32;;;;;;;7.87;5.03;;;10.10;99.90;;;;;;5048426;28;20045;-58
2023/01/07 06:27:58;;;;;;;6.13;5.33;;;10.10;99.90;;;;;;5047908;28;20037;-58
2023/01/07 06:30:23;;;;;;;6.53;5.40;;;10.10;99.90;;;;;;5049054;28;20029;-60
2023/01/07 06:32:49;;;;;;;6.53;5.93;;;10.10;99.90;;;;;;5049317;28;20139;-59
2023/01/07 06:35:15;;;;;;;6.70;5.80;;;10.10;99.90;;;;;;5048398;28;20040;-58
2023/01/07 06:37:40;;;;;;;7.50;5.93;;;10.10;99.90;;;;;;5048351;28;20038;-55
2023/01/07 06:40:07;;;;;;;6.20;5.50;;;10.10;99.90;;;;;;5048811;28;20788;-57
2023/01/07 06:42:33;;;;;;;7.78;6.05;;;10.10;99.90;;;;;;5046730;28;20040;-57
2023/01/07 06:44:59;;;;;;;5.20;4.72;;;10.10;99.90;;;;;;5047199;28;20566;-57
2023/01/07 06:47:24;;;;;;;7.53;5.37;;;10.10;99.90;;;;;;5048661;28;20119;-59
2023/01/07 06:49:51;;;;;;;6.17;5.57;;;10.00;99.90;;;;;;5049132;28;20295;-59
2023/01/07 06:52:16;;;;;;;;;;;10.00;99.90;;;;;;5048845;28;20041;-58
2023/01/07 06:54:42;;;;;;;5.75;5.00;;;10.00;99.90;;;;;;5047520;28;19923;-61
2023/01/07 06:57:08;;;;;;;7.03;5.03;;;10.00;99.90;;;;;;5048605;28;20091;-57
2023/01/07 06:59:33;;;;;;;6.73;5.87;;;10.00;99.90;;;;;;5048896;28;20091;-56
2023/01/07 07:01:59;;;;;;;8.37;5.30;;;10.00;99.90;;;;;;5047401;28;20369;-59
2023/01/07 07:04:24;;;;;;;7.90;6.03;;;9.90;99.90;;;;;;5047327;28;20118;-61
2023/01/07 07:06:50;;;;;;;5.23;4.73;;;9.90;99.90;;;;;;5048625;28;20091;-56
2023/01/07 07:09:15;;;;;;;6.73;4.90;;;9.90;99.90;;;;;;5047791;28;20040;-60
2023/01/07 07:11:41;;;;;;;6.23;5.17;;;9.90;99.90;;;;;;5048844;28;20115;-58
2023/01/07 07:14:06;;;;;;;8.07;5.60;;;9.90;99.90;;;;;;5047361;28;20069;-57
2023/01/07 07:16:32;;;;;;;5.97;5.47;;;9.80;99.90;;;;;;5048325;28;20039;-57
2023/01/07 07:18:57;;;;;;;8.10;5.40;;;9.80;99.90;;;;;;5048295;28;20120;-59
2023/01/07 07:21:23;;;;;;;5.37;4.60;;;9.80;99.90;;;;;;5048525;28;20037;-60
2023/01/07 07:23:48;;;;;;;5.27;4.87;;;9.70;99.90;;;;;;5043428;28;20032;-57
2023/01/07 07:26:14;;;;;;;6.57;5.40;;;9.70;99.90;;;;;;5044974;28;20150;-61
2023/01/07 07:28:41;;;;;;;6.50;4.63;;;9.70;99.90;;;;;;5048718;28;20033;-57
2023/01/07 07:31:08;;;;;;;6.13;5.03;;;9.70;99.90;;;;;;5049456;28;20044;-60
2023/01/07 07:33:33;;;;;;;8.38;4.15;;;9.70;99.90;;;;;;5048495;28;20045;-58
2023/01/07 07:35:59;;;;;;;5.13;4.43;;;9.70;99.90;;;;;;5049242;28;20033;-59
2023/01/07 07:38:25;;;;;;;5.07;4.55;;;9.70;99.90;;;;;;5048030;28;20137;-61
2023/01/07 07:40:50;;;;;;;6.47;4.20;;;9.70;99.90;;;;;;5052835;28;20443;-61
2023/01/07 07:43:16;;;;;;;5.43;4.55;;;9.70;99.90;;;;;;5051415;28;20713;-58
2023/01/07 07:45:42;;;;;;;5.77;4.47;;;9.70;99.90;;;;;;5049013;28;20138;-60
2023/01/07 07:48:09;;;;;;;6.28;4.65;;;9.70;99.90;;;;;;5052999;28;20045;-61
2023/01/07 07:50:35;;;;;;;5.45;4.35;;;9.70;99.90;;;;;;5051456;28;20037;-58
2023/01/07 07:53:01;;;;;;;5.53;3.65;;;9.70;99.90;;;;;;5032293;28;20048;-60
2023/01/07 07:55:26;;;;;;;4.63;4.20;;;9.70;99.90;;;;;;5032068;28;20045;-60
2023/01/07 07:57:53;;;;;;;3.88;3.60;;;9.70;99.90;;;;;;5033143;28;20088;-59
2023/01/07 08:00:19;;;;;;;4.63;4.25;;;9.70;99.90;;;;;;5033810;28;20437;-58
2023/01/07 08:02:45;;;;;;;4.27;3.57;;;9.70;99.90;;;;;;5034777;28;20050;-61
2023/01/07 08:05:11;;;;;;;7.13;4.00;;;9.70;99.90;;;;;;5052035;28;20643;-60
2023/01/07 08:07:37;;;;;;;4.70;2.97;;;9.70;99.90;;;;;;5052306;28;20048;-59
2023/01/07 08:10:03;;;;;;;4.43;4.03;;;9.70;99.90;;;;;;5053228;28;20110;-60
2023/01/07 08:12:30;;;;;;;7.47;3.28;;;9.70;99.90;;;;;;5053745;28;20068;-60
2023/01/07 08:14:55;;;;;;;3.15;2.95;;;9.70;99.90;;;;;;5051730;28;20037;-59
2023/01/07 08:17:21;;;;;;;6.13;2.83;;;9.70;99.90;;;;;;5051450;28;20037;-59
2023/01/07 08:19:46;;;;;;;3.03;2.83;;;9.70;99.90;;;;;;5053038;28;20083;-58
2023/01/07 08:22:12;;;;;;;2.50;2.30;;;9.70;99.90;;;;;;5052355;28;20041;-60
2023/01/07 08:24:37;;;;;;;4.60;3.37;;;9.70;99.90;;;;;;5051955;28;20041;-60
2023/01/07 08:27:03;;;;;;;3.80;2.70;;;9.70;99.90;;;;;;5052226;28;20060;-63
2023/01/07 08:29:28;;;;;;;2.80;2.60;;;9.80;99.90;;;;;;5052148;28;20446;-58
2023/01/07 08:31:54;;;;;;;2.70;2.50;;;9.90;99.90;;;;;;5052624;28;20116;-59
2023/01/07 08:34:20;;;;;;;5.87;3.03;;;10.00;99.90;;;;;;5051137;28;20112;-60
2023/01/07 08:36:45;;;;;;;2.87;2.57;;;10.10;99.90;;;;;;5052200;28;20354;-61
2023/01/07 08:39:11;;;;;;;2.60;1.70;;;10.10;99.90;;;;;;5051147;28;20294;-58
2023/01/07 08:41:37;;;;;;;8.30;1.85;;;10.20;99.90;;;;;;5050944;28;20070;-57
2023/01/07 08:44:03;;;;;;;2.20;2.00;;;10.30;99.90;;;;;;5051651;28;20124;-58
2023/01/07 08:46:28;;;;;;;1.60;1.50;;;10.30;99.90;;;;;;5051927;28;20075;-60
2023/01/07 08:48:54;;;;;;;2.97;1.70;;;10.40;99.90;;;;;;5051872;28;20048;-60
2023/01/07 08:51:19;;;;;;;3.03;1.57;;;10.30;99.90;;;;;;5050601;28;20331;-60
2023/01/07 08:53:45;;;;;;;3.77;1.83;;;10.20;99.90;;;;;;5050130;28;20029;-59
2023/01/07 08:56:10;;;;;;;6.17;2.23;;;10.10;99.90;;;;;;5051613;28;20044;-60
2023/01/07 08:58:37;;;;;;;2.57;1.93;;;10.20;99.90;;;;;;5051740;28;20061;-61
2023/01/07 09:01:04;;;;;;;;;;;10.10;99.90;;;;;;5052255;28;20306;-60
2023/01/07 09:03:30;;;;;;;2.92;1.50;;;10.10;99.90;;;;;;5050936;28;20359;-60
2023/01/07 09:05:55;;;;;;;2.97;1.63;;;10.10;99.90;;;;;;5050525;28;20268;-59
2023/01/07 09:08:21;;;;;;;3.20;2.43;;;10.00;99.90;;;;;;5051412;28;20091;-59
2023/01/07 09:10:46;;;;;;;2.07;1.87;;;10.00;99.90;;;;;;5051999;28;20044;-59
2023/01/07 09:13:12;;;;;;;4.30;1.57;;;10.00;99.90;;;;;;5050979;28;20122;-59
2023/01/07 09:15:37;;;;;;;3.47;2.03;;;9.90;99.90;;;;;;5049856;28;20094;-60
2023/01/07 09:18:03;;;;;;;2.30;1.87;;;9.90;99.90;;;;;;5049426;28;20341;-59
2023/01/07 09:20:29;;;;;;;2.75;2.00;;;10.00;99.90;;;;;;5049304;28;20053;-58
2023/01/07 09:22:55;;;;;;;4.82;1.95;;;10.00;99.90;;;;;;5050716;28;20052;-59
2023/01/07 09:25:20;;;;;;;2.03;1.40;;;10.00;99.90;;;;;;5050055;28;20447;-61
2023/01/07 09:27:46;;;;;;;2.57;1.27;;;10.10;99.90;;;;;;5050168;28;20033;-60
2023/01/07 09:30:12;;;;;;;1.67;1.30;;;10.20;99.90;;;;;;5051131;28;20296;-61
2023/01/07 09:32:38;;;;;;;2.92;1.23;;;10.20;99.90;;;;;;5051527;28;20119;-58
2023/01/07 09:35:05;;;;;;;1.75;1.30;;;10.20;99.90;;;;;;5049207;28;20033;-59
2023/01/07 09:37:30;;;;;;;3.40;1.17;;;10.20;99.90;;;;;;5050965;28;20036;-56
2023/01/07 09:39:56;;;;;;;3.63;1.00;;;10.20;99.90;;;;;;5050517;28;20479;-57
2023/01/07 09:42:30;;;;;;;1.60;1.27;;;10.30;99.90;;;;;;5050995;28;20045;-60
2023/01/07 09:45:11;;;;;;;2.05;0.73;;;10.30;99.90;;;;;;5050452;28;20402;-58
2023/01/07 09:47:42;;;;;;;1.10;0.70;;;10.40;99.90;;;;;;5050411;28;20037;-60
2023/01/07 09:50:46;;;;;;;1.88;1.00;;;10.40;99.90;;;;;;5050982;28;20041;-62
2023/01/07 09:53:35;;;;;;;1.30;0.85;;;10.50;99.90;;;;;;5050517;28;20049;-60
2023/01/07 09:56:12;;;;;;;3.35;0.90;;;10.60;99.90;;;;;;5049730;28;20080;-60
2023/01/07 09:58:40;;;;;;;1.80;0.70;;;10.60;99.90;;;;;;5050706;28;20041;-61
2023/01/07 10:01:20;;;;;;;2.33;0.85;;;10.60;99.90;;;;;;5050388;28;20047;-61
2023/01/07 10:03:55;;;;;;;1.95;0.68;;;10.70;99.90;;;;;;5075197;28;20115;-61
2023/01/07 10:06:31;;;;;;;1.00;0.68;;;10.70;99.90;;;;;;5048829;28;20036;-61
2023/01/07 10:09:18;;;;;;;2.70;0.88;;;10.60;99.90;;;;;;5050564;28;20049;-60
2023/01/07 10:12:15;;;;;;;1.75;0.70;;;10.70;99.90;;;;;;5050281;28;20040;-58
2023/01/07 10:15:10;;;;;;;7.63;1.00;;;10.70;99.90;;;;;;5048743;28;20485;-61
2023/01/07 10:18:04;;;;;;;2.58;0.70;;;10.70;99.90;;;;;;5046319;28;20075;-60
2023/01/07 10:21:00;;;;;;;0.95;0.70;;;10.70;99.90;;;;;;5050045;28;20051;-60
2023/01/07 10:23:30;;;;;;;1.33;0.93;;;10.70;99.90;;;;;;5049447;28;20398;-58
2023/01/07 10:26:04;;;;;;;3.38;0.70;;;10.70;99.90;;;;;;5067351;27;20399;-58
2023/01/07 10:28:38;;;;;;;1.38;0.63;;;10.80;99.90;;;;;;5066816;28;20052;-57
2023/01/07 10:31:05;;;;;;;2.15;0.82;;;10.80;99.90;;;;;;5048467;28;20216;-62
2023/01/07 10:33:35;;;;;;;4.28;1.13;;;10.80;99.90;;;;;;5065522;28;20037;-59
2023/01/07 10:36:13;;;;;;;0.88;0.45;;;10.80;99.90;;;;;;5066609;28;20036;-61
2023/01/07 10:38:41;;;;;;;1.52;0.73;;;10.80;99.90;;;;;;5066537;28;20048;-61
2023/01/07 10:41:16;;;;;;;2.10;1.55;;;10.80;99.90;;;;;;5066365;28;20033;-62
2023/01/07 10:44:19;;;;;;;1.55;0.52;;;10.80;99.90;;;;;;5065656;28;20502;-61
2023/01/07 10:47:10;;;;;;;3.30;0.75;;;10.80;99.90;;;;;;5066523;28;20513;-61
2023/01/07 10:50:03;;;;;;;2.22;1.30;;;10.80;99.90;;;;;;5066644;28;20155;-61
2023/01/07 10:52:35;;;;;;;2.05;0.70;;;10.80;99.90;;;;;;5066481;28;20044;-62
2023/01/07 10:55:24;;;;;;;6.40;0.70;;;10.80;99.90;;;;;;5064869;28;20044;-60
2023/01/07 10:57:50;;;;;;;3.22;0.63;;;10.80;99.90;;;;;;5065868;28;20063;-59
2023/01/07 11:00:18;;;;;;;1.07;0.80;;;10.80;99.90;;;;;;5066354;28;20045;-60
2023/01/07 11:02:49;;;;;;;1.42;0.80;;;10.80;99.90;;;;;;5065842;28;20112;-55
2023/01/07 11:05:19;;;;;;;1.77;0.70;;;10.80;99.90;;;;;;5065047;28;20090;-59
2023/01/07 11:07:54;;;;;;;0.93;0.70;;;10.80;99.90;;;;;;5065009;28;20447;-60
2023/01/07 11:10:24;;;;;;;1.80;0.93;;;10.80;99.90;;;;;;5066484;28;20068;-58
2023/01/07 11:12:57;;;;;;;2.80;0.60;;;10.80;99.90;;;;;;5065940;28;20498;-61
2023/01/07 11:15:38;;;;;;;1.17;0.50;;;10.80;99.90;;;;;;5065642;28;20048;-55
2023/01/07 11:18:12;;;;;;;4.53;0.63;;;10.90;99.90;;;;;;5065775;28;20044;-58
2023/01/07 11:21:07;;;;;;;1.58;0.60;;;10.90;99.90;;;;;;5066041;28;20055;-56
2023/01/07 11:23:40;;;;;;;2.72;2.53;;;10.90;99.90;;;;;;5022305;28;20054;-56
2023/01/07 11:26:16;;;;;;;4.43;4.13;;;10.90;99.90;;;;;;5021514;28;20149;-57
2023/01/07 11:28:57;;;;;;;5.10;4.65;;;10.90;99.90;;;;;;5011352;28;20107;-54
2023/01/07 11:31:47;;;;;;;2.08;0.50;;;10.90;99.90;;;;;;5007140;28;20116;-58
2023/01/07 11:34:36;;;;;;;0.63;0.47;;;10.90;99.90;;;;;;5002708;28;20169;-59
2023/01/07 11:37:03;;;;;;;3.13;0.90;;;10.90;99.90;;;;;;5011996;28;20038;-55
2023/01/07 11:39:31;;;;;;;0.90;0.40;;;10.90;99.90;;;;;;4993916;28;20049;-58
2023/01/07 11:41:59;;;;;;;3.35;0.75;;;10.90;99.90;;;;;;5009052;28;20543;-61
2023/01/07 11:44:26;;;;;;;0.90;0.40;;;10.90;99.90;;;;;;5008033;28;20128;-60
2023/01/07 11:46:53;;;;;;;1.20;0.63;;;11.00;99.90;;;;;;5009122;28;20046;-59
2023/01/07 11:49:29;;;;;;;1.88;0.40;;;11.00;99.90;;;;;;5009022;28;20044;-60
2023/01/07 11:51:55;;;;;;;1.02;0.50;;;11.00;99.90;;;;;;5010063;28;20049;-59
2023/01/07 11:54:25;;;;;;;;;;;11.10;99.90;;;;;;4992395;28;20058;-61
2023/01/07 11:56:51;;;;;;;0.70;0.30;;;11.10;99.90;;;;;;5009555;28;20000;-59
2023/01/07 11:59:25;;;;;;;0.60;0.40;;;11.10;99.90;;;;;;5018624;28;20045;-60
2023/01/07 12:01:54;;;;;;;1.02;0.40;;;11.10;99.90;;;;;;5052431;28;20072;-59
2023/01/07 12:04:27;;;;;;;0.70;0.30;;;11.20;99.90;;;;;;5050565;28;20037;-60
2023/01/07 12:07:05;;;;;;;2.33;0.45;;;11.20;99.90;;;;;;5051808;28;20045;-59
2023/01/07 12:09:36;;;;;;;2.40;0.43;;;11.30;99.90;;;;;;5050600;28;20103;-58
2023/01/07 12:15:15;;;;;;;2.05;0.50;;;11.30;99.90;;;;;;5030560;28;20561;-58
2023/01/07 12:17:45;;;;;;;1.58;0.30;;;11.40;99.90;;;;;;5035192;28;20082;-59
2023/01/07 12:20:32;;;;;;;2.70;0.50;;;11.60;99.90;;;;;;5051801;28;20049;-59
2023/01/07 12:23:11;;;;;;;0.55;0.40;;;12.20;99.90;;;;;;5050910;28;20044;-61
2023/01/07 12:25:53;;;;;;;3.70;0.57;;;12.90;99.90;;;;;;5049858;28;20068;-61
2023/01/07 12:28:40;;;;;;;0.47;0.30;;;13.60;99.90;;;;;;5051165;28;20056;-59
2023/01/07 12:31:40;;;;;;;0.90;0.20;;;13.90;99.90;;;;;;5050704;28;20037;-60
2023/01/07 12:34:16;;;;;;;0.50;0.30;;;14.40;99.90;;;;;;5046478;28;20033;-63
2023/01/07 12:37:08;;;;;;;2.47;0.30;;;14.80;99.90;;;;;;5050542;28;20043;-60
2023/01/07 12:39:37;;;;;;;0.73;0.22;;;15.00;99.90;;;;;;5047129;28;20140;-60
2023/01/07 12:42:10;;;;;;;0.45;0.30;;;15.00;99.90;;;;;;5044983;28;20041;-57
2023/01/07 12:44:43;;;;;;;0.57;0.40;;;14.80;99.90;;;;;;5042781;28;20108;-59
2023/01/07 12:47:25;;;;;;;5.78;0.30;;;14.70;99.90;;;;;;5048852;28;20551;-58
2023/01/07 12:50:01;;;;;;;1.67;0.30;;;14.20;99.90;;;;;;5049790;28;20133;-61
2023/01/07 12:53:01;;;;;;;1.75;0.43;;;13.60;99.90;;;;;;5042482;28;20033;-61
2023/01/07 12:55:41;;;;;;;1.27;0.40;;;13.20;99.90;;;;;;5016638;28;20053;-58
2023/01/07 12:58:18;;;;;;;1.38;0.60;;;12.70;99.90;;;;;;5000707;28;20041;-60
2023/01/07 13:01:11;;;;;;;4.20;0.47;;;12.50;99.90;;;;;;5000248;28;20480;-58
2023/01/07 13:03:55;;;;;;;1.13;0.40;;;12.30;99.90;;;;;;5018043;28;20775;-61